Time;durP1;ratioP1;P1;durP2;ratioP2;P2;SDS_P1;SDS_P2;PMS_P1;PMS_P2;Temp;Humidity;BMP_temperature;BMP_pressure;BME280_temperature;BME280_humidity;BME280_pressure;Samples;Min_cycle;Max_cycle;Signal;HPM_P1;HPM_P2
2021/01/09 00:11:35;;;;;;;23.17;7.00;;;;;;;;;;4771928;27;8585110;-61
2021/01/09 00:14:02;;;;;;;11.20;7.10;;;;;;;;;;5090238;28;20036;-61
2021/01/09 00:16:29;;;;;;;8.90;5.20;;;;;;;;;;5090420;28;20036;-62
2021/01/09 00:18:56;;;;;;;37.57;6.43;;;;;;;;;;5089999;28;20046;-59
2021/01/09 00:21:23;;;;;;;7.50;4.87;;;;;;;;;;5089959;28;20024;-58
2021/01/09 00:23:49;;;;;;;7.10;3.83;;;;;;;;;;5090034;28;20025;-57
2021/01/09 00:26:16;;;;;;;9.07;5.00;;;;;;;;;;5089984;28;20024;-57
2021/01/09 00:28:43;;;;;;;6.63;4.30;;;;;;;;;;5089931;28;20089;-58
2021/01/09 00:31:14;;;;;;;7.83;4.50;;;;;;;;;;5090085;28;20031;-57
2021/01/09 00:33:41;;;;;;;7.50;4.63;;;;;;;;;;5089888;28;20028;-58
2021/01/09 00:36:08;;;;;;;5.37;3.90;;;;;;;;;;5089731;28;20024;-58
2021/01/09 00:38:37;;;;;;;6.33;4.30;;;;;;;;;;5089517;28;20035;-58
2021/01/09 00:41:04;;;;;;;6.27;4.50;;;;;;;;;;5089751;28;20032;-58
2021/01/09 00:43:31;;;;;;;6.63;4.87;;;;;;;;;;5089586;28;20021;-58
2021/01/09 00:45:58;;;;;;;6.37;4.50;;;;;;;;;;5089569;28;20174;-58
2021/01/09 00:48:24;;;;;;;7.33;4.87;;;;;;;;;;5089518;28;20028;-57
2021/01/09 00:50:51;;;;;;;7.57;4.60;;;;;;;;;;5089532;28;20044;-57
2021/01/09 00:53:18;;;;;;;6.53;4.70;;;;;;;;;;5089553;28;20031;-57
2021/01/09 00:55:46;;;;;;;7.93;4.67;;;;;;;;;;5089366;28;20073;-57
2021/01/09 00:58:12;;;;;;;8.13;4.93;;;;;;;;;;5089214;28;20483;-57
2021/01/09 01:00:39;;;;;;;5.67;4.60;;;;;;;;;;5089190;28;20031;-56
2021/01/09 01:03:07;;;;;;;9.27;4.37;;;;;;;;;;5089339;28;20027;-57
2021/01/09 01:05:33;;;;;;;7.97;4.17;;;;;;;;;;5089239;28;20027;-57
2021/01/09 01:08:00;;;;;;;8.10;4.53;;;;;;;;;;5089108;28;20028;-57
2021/01/09 01:10:27;;;;;;;6.97;4.00;;;;;;;;;;5101311;27;20436;-57
2021/01/09 01:12:55;;;;;;;6.37;4.37;;;;;;;;;;5095823;28;20027;-57
2021/01/09 01:15:22;;;;;;;7.80;4.80;;;;;;;;;;5095838;28;20020;-56
2021/01/09 01:17:48;;;;;;;8.23;4.53;;;;;;;;;;5095802;28;20028;-57
2021/01/09 01:20:15;;;;;;;6.80;4.73;;;;;;;;;;5095595;28;20433;-57
2021/01/09 01:22:45;;;;;;;6.07;4.40;;;;;;;;;;5095826;28;20055;-57
2021/01/09 01:25:12;;;;;;;7.93;4.63;;;;;;;;;;5093275;28;20030;-57
2021/01/09 01:27:40;;;;;;;6.90;4.40;;;;;;;;;;5115947;28;20207;-57
2021/01/09 01:30:07;;;;;;;7.33;4.27;;;;;;;;;;5115704;28;20103;-57
2021/01/09 01:32:33;;;;;;;6.17;3.90;;;;;;;;;;5115977;28;20586;-57
2021/01/09 01:35:00;;;;;;;6.10;4.10;;;;;;;;;;5115890;28;20030;-58
2021/01/09 01:37:34;;;;;;;7.23;3.33;;;;;;;;;;5115747;28;20023;-57
2021/01/09 01:40:00;;;;;;;7.43;3.90;;;;;;;;;;5115696;28;20159;-58
2021/01/09 01:42:29;;;;;;;6.63;3.77;;;;;;;;;;5115628;28;20038;-58
2021/01/09 01:44:56;;;;;;;5.13;3.17;;;;;;;;;;5115674;28;20039;-58
2021/01/09 01:47:23;;;;;;;6.27;3.67;;;;;;;;;;5115587;28;20051;-58
2021/01/09 01:49:50;;;;;;;6.73;3.70;;;;;;;;;;5115633;28;20240;-58
2021/01/09 01:52:17;;;;;;;6.53;4.20;;;;;;;;;;5115466;28;20015;-58
2021/01/09 01:54:44;;;;;;;6.60;3.53;;;;;;;;;;5115526;28;20363;-58
2021/01/09 01:57:12;;;;;;;6.80;4.00;;;;;;;;;;5115369;28;20020;-58
2021/01/09 01:59:42;;;;;;;6.27;4.20;;;;;;;;;;5115576;28;20112;-58
2021/01/09 02:02:13;;;;;;;8.87;4.50;;;;;;;;;;5115205;28;20016;-58
2021/01/09 02:04:40;;;;;;;7.07;4.73;;;;;;;;;;5115222;28;20031;-58
2021/01/09 02:07:12;;;;;;;7.90;4.87;;;;;;;;;;5115155;28;20027;-58
2021/01/09 02:09:41;;;;;;;6.77;4.30;;;;;;;;;;5115723;27;20398;-58
2021/01/09 02:12:17;;;;;;;7.20;4.73;;;;;;;;;;5115075;28;20031;-58
2021/01/09 02:14:52;;;;;;;6.90;4.50;;;;;;;;;;5115115;28;20089;-58
2021/01/09 02:17:19;;;;;;;7.30;5.30;;;;;;;;;;5115116;28;20047;-58
2021/01/09 02:19:46;;;;;;;6.57;4.83;;;;;;;;;;5114984;28;20046;-58
2021/01/09 02:22:14;;;;;;;6.53;4.73;;;;;;;;;;5114058;28;20027;-58
2021/01/09 02:24:42;;;;;;;7.83;4.47;;;;;;;;;;5114868;28;20058;-58
2021/01/09 02:27:09;;;;;;;5.73;3.70;;;;;;;;;;5114826;28;20024;-58
2021/01/09 02:29:44;;;;;;;5.77;4.00;;;;;;;;;;5114844;28;20474;-58
2021/01/09 02:32:12;;;;;;;5.87;3.40;;;;;;;;;;5114684;28;20020;-58
2021/01/09 02:34:44;;;;;;;6.93;3.93;;;;;;;;;;5114706;28;20032;-58
2021/01/09 02:37:11;;;;;;;5.60;3.67;;;;;;;;;;5114636;28;20024;-57
2021/01/09 02:39:39;;;;;;;4.70;2.97;;;;;;;;;;5114465;28;20046;-58
2021/01/09 02:42:06;;;;;;;6.73;3.00;;;;;;;;;;5114489;28;20428;-57
2021/01/09 02:44:39;;;;;;;4.40;3.03;;;;;;;;;;5114471;28;20028;-57
2021/01/09 02:47:06;;;;;;;5.37;3.30;;;;;;;;;;5114503;28;20023;-58
2021/01/09 02:49:33;;;;;;;7.00;3.93;;;;;;;;;;5114429;28;20019;-58
2021/01/09 02:52:00;;;;;;;4.87;3.43;;;;;;;;;;5114637;28;20019;-58
2021/01/09 02:54:26;;;;;;;4.37;3.03;;;;;;;;;;5114268;28;20096;-57
2021/01/09 02:56:53;;;;;;;4.10;2.80;;;;;;;;;;5114222;28;20034;-58
2021/01/09 02:59:20;;;;;;;4.47;3.30;;;;;;;;;;5114196;28;20040;-57
2021/01/09 03:01:49;;;;;;;4.97;3.50;;;;;;;;;;5114069;28;20065;-57
2021/01/09 03:04:16;;;;;;;6.40;4.00;;;;;;;;;;5114271;28;20024;-57
2021/01/09 03:06:43;;;;;;;3.90;2.93;;;;;;;;;;5114098;28;20019;-57
2021/01/09 03:09:11;;;;;;;4.47;2.93;;;;;;;;;;5114270;28;20470;-57
2021/01/09 03:11:38;;;;;;;5.57;3.40;;;;;;;;;;5113907;27;20494;-57
2021/01/09 03:14:05;;;;;;;6.17;2.87;;;;;;;;;;5114034;28;20106;-57
2021/01/09 03:16:32;;;;;;;5.10;3.33;;;;;;;;;;5113904;28;20047;-57
2021/01/09 03:18:59;;;;;;;4.57;3.03;;;;;;;;;;5113753;28;20557;-57
2021/01/09 03:21:25;;;;;;;4.43;3.10;;;;;;;;;;5113727;28;20032;-57
2021/01/09 03:23:52;;;;;;;4.93;3.10;;;;;;;;;;5113737;28;20015;-57
2021/01/09 03:26:19;;;;;;;4.73;3.07;;;;;;;;;;5113847;28;20031;-57
2021/01/09 03:28:46;;;;;;;5.00;2.87;;;;;;;;;;5113789;28;20074;-57
2021/01/09 03:31:13;;;;;;;4.10;2.87;;;;;;;;;;5095425;28;20069;-57
2021/01/09 03:33:39;;;;;;;4.60;3.10;;;;;;;;;;5113473;28;20099;-57
2021/01/09 03:36:06;;;;;;;4.53;2.90;;;;;;;;;;5113629;28;20106;-57
2021/01/09 03:38:33;;;;;;;6.47;3.73;;;;;;;;;;5113444;28;20026;-57
2021/01/09 03:41:00;;;;;;;5.50;3.10;;;;;;;;;;5113453;28;20035;-57
2021/01/09 03:43:27;;;;;;;4.97;3.37;;;;;;;;;;5113462;28;20084;-57
2021/01/09 03:45:53;;;;;;;5.67;3.20;;;;;;;;;;5113561;28;20042;-57
2021/01/09 03:48:20;;;;;;;6.00;3.63;;;;;;;;;;5113489;28;20027;-57
2021/01/09 03:50:47;;;;;;;5.30;2.83;;;;;;;;;;5113406;28;20517;-57
2021/01/09 03:53:15;;;;;;;4.57;3.00;;;;;;;;;;5113477;28;20024;-57
2021/01/09 03:55:42;;;;;;;3.90;2.73;;;;;;;;;;5113415;28;20047;-57
2021/01/09 03:58:08;;;;;;;6.13;3.37;;;;;;;;;;5113299;28;20023;-57
2021/01/09 04:00:35;;;;;;;4.07;2.50;;;;;;;;;;5113310;28;20386;-57
2021/01/09 04:03:02;;;;;;;4.40;2.63;;;;;;;;;;5113343;28;20050;-57
2021/01/09 04:05:29;;;;;;;4.43;2.63;;;;;;;;;;5113290;28;20077;-57
2021/01/09 04:07:56;;;;;;;8.00;3.23;;;;;;;;;;5113277;28;20103;-57
2021/01/09 04:10:22;;;;;;;4.83;2.93;;;;;;;;;;5113559;27;20055;-57
2021/01/09 04:12:49;;;;;;;4.57;2.80;;;;;;;;;;5113283;28;20073;-57
2021/01/09 04:15:16;;;;;;;8.00;2.73;;;;;;;;;;5113219;28;20026;-57
2021/01/09 04:17:43;;;;;;;4.43;2.73;;;;;;;;;;5113124;28;20012;-57
2021/01/09 04:20:10;;;;;;;3.77;2.73;;;;;;;;;;5112963;28;20035;-57
2021/01/09 04:22:37;;;;;;;3.57;2.53;;;;;;;;;;5113117;28;20386;-57
2021/01/09 04:25:04;;;;;;;5.10;2.90;;;;;;;;;;5113028;28;20027;-58
2021/01/09 04:27:30;;;;;;;4.40;2.73;;;;;;;;;;5113094;28;20019;-58
2021/01/09 04:29:57;;;;;;;5.10;3.03;;;;;;;;;;5113097;28;20024;-58
2021/01/09 04:32:24;;;;;;;3.70;2.53;;;;;;;;;;5113017;28;20091;-58
2021/01/09 04:34:51;;;;;;;4.50;2.33;;;;;;;;;;5113294;28;20034;-58
2021/01/09 04:37:19;;;;;;;4.13;2.63;;;;;;;;;;5113060;28;20104;-58
2021/01/09 04:39:46;;;;;;;6.87;3.40;;;;;;;;;;5113112;28;20044;-58
2021/01/09 04:42:13;;;;;;;5.40;2.80;;;;;;;;;;5112920;28;20016;-58
2021/01/09 04:44:39;;;;;;;6.73;2.80;;;;;;;;;;5112887;28;20031;-58
2021/01/09 04:47:09;;;;;;;4.37;2.60;;;;;;;;;;5115810;28;20097;-58
2021/01/09 04:49:35;;;;;;;3.50;2.30;;;;;;;;;;5116781;28;20055;-58
2021/01/09 04:52:04;;;;;;;4.33;2.20;;;;;;;;;;5116737;28;20028;-58
2021/01/09 04:54:31;;;;;;;6.10;2.53;;;;;;;;;;5116623;28;20024;-58
2021/01/09 04:56:58;;;;;;;3.47;1.80;;;;;;;;;;5116645;28;20049;-58
2021/01/09 04:59:25;;;;;;;5.27;2.27;;;;;;;;;;5116582;28;20036;-58
2021/01/09 05:01:53;;;;;;;4.23;1.90;;;;;;;;;;5116412;28;20028;-58
2021/01/09 05:04:20;;;;;;;3.20;2.00;;;;;;;;;;5116428;28;20024;-58
2021/01/09 05:06:47;;;;;;;3.60;2.00;;;;;;;;;;5116444;28;20020;-58
2021/01/09 05:09:15;;;;;;;3.87;2.00;;;;;;;;;;5116276;28;20023;-58
2021/01/09 05:11:42;;;;;;;3.97;2.00;;;;;;;;;;5116768;27;20046;-58
2021/01/09 05:14:09;;;;;;;2.57;1.50;;;;;;;;;;5116280;28;20027;-58
2021/01/09 05:16:37;;;;;;;4.10;1.53;;;;;;;;;;5116144;28;20557;-58
2021/01/09 05:19:05;;;;;;;2.43;1.60;;;;;;;;;;5116049;28;20016;-57
2021/01/09 05:21:35;;;;;;;3.30;1.77;;;;;;;;;;5116217;28;20023;-58
2021/01/09 05:24:06;;;;;;;4.87;1.87;;;;;;;;;;5116116;28;20047;-58
2021/01/09 05:26:33;;;;;;;3.80;2.07;;;;;;;;;;5116060;28;20034;-58
2021/01/09 05:29:01;;;;;;;4.67;2.20;;;;;;;;;;5116346;28;20023;-57
2021/01/09 05:31:31;;;;;;;3.77;1.67;;;;;;;;;;5115885;28;20016;-57
2021/01/09 05:33:58;;;;;;;5.83;1.73;;;;;;;;;;5115878;28;20531;-57
2021/01/09 05:36:25;;;;;;;4.33;1.70;;;;;;;;;;5115919;28;20016;-57
2021/01/09 05:38:52;;;;;;;3.40;1.80;;;;;;;;;;5115691;28;20028;-57
2021/01/09 05:41:20;;;;;;;3.83;2.30;;;;;;;;;;5097386;28;20027;-57
2021/01/09 05:43:59;;;;;;;2.80;1.67;;;;;;;;;;5097501;28;20070;-57
2021/01/09 05:46:26;;;;;;;3.30;1.90;;;;;;;;;;5115908;28;20028;-57
2021/01/09 05:48:54;;;;;;;3.40;1.80;;;;;;;;;;5115689;28;20028;-58
2021/01/09 05:51:21;;;;;;;2.30;1.43;;;;;;;;;;5115424;28;20062;-56
2021/01/09 05:53:49;;;;;;;3.20;1.50;;;;;;;;;;5115848;28;20028;-56
2021/01/09 05:56:21;;;;;;;5.13;1.73;;;;;;;;;;5115505;28;20115;-56
2021/01/09 05:58:51;;;;;;;2.47;1.40;;;;;;;;;;5115313;28;20077;-57
2021/01/09 06:01:25;;;;;;;3.10;1.60;;;;;;;;;;5115640;28;20035;-57
2021/01/09 06:04:05;;;;;;;2.67;1.60;;;;;;;;;;5115297;28;20046;-57
2021/01/09 06:06:48;;;;;;;2.67;1.40;;;;;;;;;;5115566;28;20096;-57
2021/01/09 06:09:38;;;;;;;1.87;1.30;;;;;;;;;;5115245;28;20367;-58
2021/01/09 06:12:13;;;;;;;2.10;1.40;;;;;;;;;;5115567;27;20051;-57
2021/01/09 06:14:44;;;;;;;2.00;1.30;;;;;;;;;;5114959;28;20039;-57
2021/01/09 06:17:11;;;;;;;3.63;1.53;;;;;;;;;;5114975;28;20024;-57
2021/01/09 06:19:38;;;;;;;2.43;1.37;;;;;;;;;;5114970;28;20118;-57
2021/01/09 06:22:06;;;;;;;4.30;2.00;;;;;;;;;;5114871;28;20036;-58
2021/01/09 06:24:34;;;;;;;2.70;1.40;;;;;;;;;;5114588;28;20020;-58
2021/01/09 06:27:01;;;;;;;2.27;1.30;;;;;;;;;;5114866;28;20023;-58
2021/01/09 06:29:29;;;;;;;5.73;2.50;;;;;;;;;;5114686;28;20431;-58
2021/01/09 06:31:57;;;;;;;2.90;1.57;;;;;;;;;;5114748;28;20019;-58
2021/01/09 06:34:27;;;;;;;3.03;1.50;;;;;;;;;;5114742;28;20110;-59
2021/01/09 06:36:57;;;;;;;1.90;1.40;;;;;;;;;;5114725;28;20038;-58
2021/01/09 06:39:27;;;;;;;3.07;1.70;;;;;;;;;;5114566;28;20470;-58
2021/01/09 06:41:58;;;;;;;2.33;1.60;;;;;;;;;;5114609;28;20166;-58
2021/01/09 06:44:26;;;;;;;4.40;1.50;;;;;;;;;;5114548;28;20027;-58
2021/01/09 06:46:53;;;;;;;4.20;1.50;;;;;;;;;;5114463;28;20513;-58
2021/01/09 06:49:21;;;;;;;3.20;1.70;;;;;;;;;;5114509;28;20031;-58
2021/01/09 06:51:57;;;;;;;1.80;1.20;;;;;;;;;;5114292;28;20061;-58
2021/01/09 06:54:28;;;;;;;3.60;1.93;;;;;;;;;;5114341;28;20038;-58
2021/01/09 06:57:04;;;;;;;3.23;1.50;;;;;;;;;;5114273;28;20023;-58
2021/01/09 06:59:34;;;;;;;2.97;1.40;;;;;;;;;;5114201;28;20043;-58
2021/01/09 07:02:11;;;;;;;3.87;1.90;;;;;;;;;;5114232;28;20535;-58
2021/01/09 07:04:56;;;;;;;2.80;1.70;;;;;;;;;;5114075;28;20081;-58
2021/01/09 07:07:39;;;;;;;3.92;1.80;;;;;;;;;;5114123;28;20073;-58
2021/01/09 07:10:06;;;;;;;2.70;1.50;;;;;;;;;;5113902;27;20019;-58
2021/01/09 07:12:34;;;;;;;2.27;1.57;;;;;;;;;;5113825;28;20048;-58
2021/01/09 07:15:04;;;;;;;2.33;1.63;;;;;;;;;;5113995;28;20016;-58
2021/01/09 07:17:33;;;;;;;2.73;1.70;;;;;;;;;;5114050;28;20428;-58
2021/01/09 07:20:04;;;;;;;4.13;1.70;;;;;;;;;;5113724;28;20040;-58
2021/01/09 07:22:32;;;;;;;5.87;2.03;;;;;;;;;;5113723;28;20053;-58
2021/01/09 07:25:00;;;;;;;1.83;1.30;;;;;;;;;;5113785;28;20028;-58
2021/01/09 07:27:35;;;;;;;3.30;1.80;;;;;;;;;;5113836;28;20102;-58
2021/01/09 07:30:11;;;;;;;2.92;1.77;;;;;;;;;;5113861;28;20034;-58
2021/01/09 07:32:42;;;;;;;3.17;2.20;;;;;;;;;;5113759;28;20051;-58
2021/01/09 07:35:09;;;;;;;5.60;1.70;;;;;;;;;;5113687;28;20080;-58
2021/01/09 07:37:38;;;;;;;3.77;1.63;;;;;;;;;;5113658;28;20024;-58
2021/01/09 07:40:13;;;;;;;4.00;1.53;;;;;;;;;;5113507;28;20118;-58
2021/01/09 07:42:40;;;;;;;3.45;1.52;;;;;;;;;;5113879;28;20072;-58
2021/01/09 07:45:08;;;;;;;2.77;1.67;;;;;;;;;;5113585;28;20067;-58
2021/01/09 07:47:39;;;;;;;3.43;1.70;;;;;;;;;;5113468;28;20419;-58
2021/01/09 07:50:07;;;;;;;2.93;1.60;;;;;;;;;;5113478;28;20024;-58
2021/01/09 07:52:34;;;;;;;2.57;1.40;;;;;;;;;;5113478;28;20019;-58
2021/01/09 07:55:02;;;;;;;2.00;1.23;;;;;;;;;;5113450;28;20220;-58
2021/01/09 07:57:30;;;;;;;4.17;1.50;;;;;;;;;;5113374;28;20442;-58
2021/01/09 07:59:57;;;;;;;3.03;1.50;;;;;;;;;;5113198;28;20050;-58
2021/01/09 08:02:30;;;;;;;6.27;1.70;;;;;;;;;;5113274;28;20103;-58
2021/01/09 08:05:03;;;;;;;3.80;1.20;;;;;;;;;;5113347;28;20028;-58
2021/01/09 08:07:30;;;;;;;2.30;1.20;;;;;;;;;;5113381;28;20023;-58
2021/01/09 08:09:58;;;;;;;4.33;1.40;;;;;;;;;;5113146;28;20048;-58
2021/01/09 08:12:28;;;;;;;2.83;1.53;;;;;;;;;;5113753;27;20060;-58
2021/01/09 08:14:58;;;;;;;3.17;1.40;;;;;;;;;;5113200;28;20034;-58
2021/01/09 08:17:25;;;;;;;2.23;1.30;;;;;;;;;;5113307;28;20339;-58
2021/01/09 08:19:52;;;;;;;2.03;1.20;;;;;;;;;;5113025;28;20034;-58
2021/01/09 08:22:19;;;;;;;4.37;1.13;;;;;;;;;;5116599;28;20069;-58
2021/01/09 08:24:45;;;;;;;2.10;1.23;;;;;;;;;;5117313;28;20024;-58
2021/01/09 08:27:19;;;;;;;3.67;1.37;;;;;;;;;;5117128;28;20147;-58
2021/01/09 08:29:46;;;;;;;2.90;1.40;;;;;;;;;;5117161;28;20364;-58
2021/01/09 08:32:13;;;;;;;5.13;1.20;;;;;;;;;;5117048;28;20019;-58
2021/01/09 08:34:48;;;;;;;3.37;1.37;;;;;;;;;;5117061;28;20389;-58
2021/01/09 08:37:16;;;;;;;3.15;1.40;;;;;;;;;;5117004;28;20381;-58
2021/01/09 08:39:43;;;;;;;3.17;1.30;;;;;;;;;;5116964;28;20035;-58
2021/01/09 08:42:14;;;;;;;3.07;1.20;;;;;;;;;;5116934;28;20057;-58
2021/01/09 08:44:47;;;;;;;2.47;1.40;;;;;;;;;;5117211;28;20469;-58
2021/01/09 08:47:19;;;;;;;2.33;1.23;;;;;;;;;;5116883;28;20148;-58
2021/01/09 08:49:47;;;;;;;2.80;1.30;;;;;;;;;;5116741;28;20032;-58
2021/01/09 08:52:17;;;;;;;1.60;1.20;;;;;;;;;;5116802;28;20020;-58
2021/01/09 08:54:45;;;;;;;2.57;1.17;;;;;;;;;;5116754;28;20031;-58
2021/01/09 08:57:14;;;;;;;5.00;1.63;;;;;;;;;;5116717;28;20091;-58
2021/01/09 08:59:42;;;;;;;3.53;1.30;;;;;;;;;;5116413;28;20085;-58
2021/01/09 09:02:13;;;;;;;5.33;1.67;;;;;;;;;;5116505;28;20031;-58
2021/01/09 09:04:43;;;;;;;3.00;1.23;;;;;;;;;;5116513;28;20043;-58
2021/01/09 09:07:10;;;;;;;2.47;1.47;;;;;;;;;;5116367;28;20028;-58
2021/01/09 09:09:41;;;;;;;6.53;1.87;;;;;;;;;;5116287;28;20019;-58
2021/01/09 09:12:08;;;;;;;2.93;1.30;;;;;;;;;;5116586;27;20109;-58
2021/01/09 09:14:35;;;;;;;3.10;1.53;;;;;;;;;;5116304;28;20055;-59
2021/01/09 09:17:03;;;;;;;3.37;1.70;;;;;;;;;;5116298;28;20358;-58
2021/01/09 09:19:35;;;;;;;3.30;1.90;;;;;;;;;;5116124;28;20606;-58
2021/01/09 09:22:02;;;;;;;3.23;1.53;;;;;;;;;;5116178;28;20020;-58
2021/01/09 09:24:44;;;;;;;2.10;1.30;;;;;;;;;;5116159;28;20482;-58
2021/01/09 09:27:26;;;;;;;2.30;1.30;;;;;;;;;;5116080;28;20031;-58
2021/01/09 09:30:10;;;;;;;2.93;1.50;;;;;;;;;;5115986;28;20031;-58
2021/01/09 09:32:37;;;;;;;3.03;1.40;;;;;;;;;;5115606;28;20035;-58
2021/01/09 09:35:23;;;;;;;4.47;1.63;;;;;;;;;;5115943;28;20107;-59
2021/01/09 09:37:51;;;;;;;2.73;1.57;;;;;;;;;;5115945;28;20055;-58
2021/01/09 09:40:24;;;;;;;2.47;1.70;;;;;;;;;;5115583;28;20449;-58
2021/01/09 09:42:51;;;;;;;2.80;1.53;;;;;;;;;;5115786;28;20115;-58
2021/01/09 09:45:18;;;;;;;4.30;1.57;;;;;;;;;;5115695;28;20726;-58
2021/01/09 09:47:49;;;;;;;3.17;1.40;;;;;;;;;;5115749;28;20185;-58
2021/01/09 09:50:19;;;;;;;2.10;1.07;;;;;;;;;;5115572;28;20481;-58
2021/01/09 09:52:56;;;;;;;3.27;1.70;;;;;;;;;;5115639;28;20062;-58
2021/01/09 09:55:24;;;;;;;4.73;1.80;;;;;;;;;;5115651;28;20024;-58
2021/01/09 09:58:10;;;;;;;3.37;1.53;;;;;;;;;;5115543;28;20098;-58
2021/01/09 10:00:36;;;;;;;;;;;;;;;;;;5115853;28;20039;-58
2021/01/09 10:03:03;;;;;;;3.23;1.50;;;;;;;;;;5115378;28;19931;-58
2021/01/09 10:05:30;;;;;;;2.70;1.40;;;;;;;;;;5115331;28;20308;-58
2021/01/09 10:08:15;;;;;;;2.63;1.60;;;;;;;;;;5115464;28;20409;-58
2021/01/09 10:10:42;;;;;;;4.78;1.45;;;;;;;;;;5115627;27;20022;-59
2021/01/09 10:13:09;;;;;;;2.00;1.30;;;;;;;;;;5115190;28;20024;-58
2021/01/09 10:15:36;;;;;;;2.67;1.50;;;;;;;;;;5115121;28;20102;-58
2021/01/09 10:18:03;;;;;;;1.80;1.13;;;;;;;;;;5114996;28;20413;-58
2021/01/09 10:20:30;;;;;;;3.00;1.50;;;;;;;;;;5114853;28;20040;-58
2021/01/09 10:22:56;;;;;;;3.00;1.60;;;;;;;;;;5115034;28;20024;-58
2021/01/09 10:25:23;;;;;;;2.50;1.43;;;;;;;;;;5114961;28;20357;-58
2021/01/09 10:27:51;;;;;;;3.53;1.60;;;;;;;;;;5114865;28;20035;-58
2021/01/09 10:30:19;;;;;;;2.63;1.60;;;;;;;;;;5114839;28;20488;-58
2021/01/09 10:32:45;;;;;;;3.07;1.40;;;;;;;;;;5114775;28;20496;-58
2021/01/09 10:35:12;;;;;;;2.57;1.50;;;;;;;;;;5114757;28;20023;-58
2021/01/09 10:37:39;;;;;;;2.70;1.60;;;;;;;;;;5114745;28;20087;-58
2021/01/09 10:40:06;;;;;;;2.93;1.43;;;;;;;;;;5114621;28;20459;-59
2021/01/09 10:42:33;;;;;;;3.00;1.47;;;;;;;;;;5114511;28;20023;-58
2021/01/09 10:45:00;;;;;;;4.40;1.50;;;;;;;;;;5113800;28;20031;-58
2021/01/09 10:47:27;;;;;;;2.47;1.40;;;;;;;;;;5114509;28;20478;-58
2021/01/09 10:49:53;;;;;;;3.17;1.60;;;;;;;;;;5114324;28;20252;-58
2021/01/09 10:52:33;;;;;;;3.57;1.43;;;;;;;;;;5114292;28;20374;-58
2021/01/09 10:55:01;;;;;;;3.77;1.70;;;;;;;;;;5093577;28;20036;-58
2021/01/09 10:57:28;;;;;;;5.23;1.70;;;;;;;;;;5114168;28;20019;-58
2021/01/09 10:59:55;;;;;;;2.73;1.50;;;;;;;;;;5114102;28;20040;-58
2021/01/09 11:02:22;;;;;;;3.13;1.50;;;;;;;;;;5114250;28;20023;-58
2021/01/09 11:04:49;;;;;;;2.80;1.87;;;;;;;;;;5114115;28;20031;-58
2021/01/09 11:07:16;;;;;;;6.87;1.90;;;;;;;;;;5114056;28;20334;-58
2021/01/09 11:09:42;;;;;;;3.90;1.87;;;;;;;;;;5114064;28;20471;-58
2021/01/09 11:12:09;;;;;;;5.00;2.30;;;;;;;;;;5114494;27;20051;-58
2021/01/09 11:14:36;;;;;;;2.70;1.70;;;;;;;;;;5114117;28;20695;-58
2021/01/09 11:17:03;;;;;;;2.87;1.70;;;;;;;;;;5113910;28;20385;-58
2021/01/09 11:19:30;;;;;;;2.73;1.60;;;;;;;;;;5113920;28;20032;-58
2021/01/09 11:22:02;;;;;;;5.33;2.00;;;;;;;;;;5113810;28;20020;-58
2021/01/09 11:24:33;;;;;;;4.13;1.47;;;;;;;;;;5113884;28;20027;-58
2021/01/09 11:27:06;;;;;;;2.53;1.53;;;;;;;;;;5113782;28;20028;-58
2021/01/09 11:29:33;;;;;;;3.13;1.90;;;;;;;;;;5113841;28;20051;-58
2021/01/09 11:32:05;;;;;;;3.37;1.73;;;;;;;;;;5113783;28;20030;-58
2021/01/09 11:34:32;;;;;;;2.57;1.50;;;;;;;;;;5113707;28;20107;-58
2021/01/09 11:36:59;;;;;;;3.63;2.03;;;;;;;;;;5113692;28;20541;-58
2021/01/09 11:39:26;;;;;;;3.27;2.03;;;;;;;;;;5113419;28;20038;-58
2021/01/09 11:41:57;;;;;;;3.87;1.80;;;;;;;;;;5113519;28;20120;-58
2021/01/09 11:44:24;;;;;;;4.00;1.90;;;;;;;;;;5113534;28;20020;-58
2021/01/09 11:46:51;;;;;;;2.77;1.63;;;;;;;;;;5113439;28;20772;-58
2021/01/09 11:49:17;;;;;;;2.60;1.70;;;;;;;;;;5113428;28;20106;-58
2021/01/09 11:51:44;;;;;;;3.17;1.80;;;;;;;;;;5113413;28;20046;-58
2021/01/09 11:54:11;;;;;;;2.57;1.67;;;;;;;;;;5113445;28;20023;-58
2021/01/09 11:56:38;;;;;;;4.27;1.67;;;;;;;;;;5113248;28;20283;-58
2021/01/09 11:59:04;;;;;;;3.63;1.80;;;;;;;;;;5113200;28;20107;-58
2021/01/09 12:01:38;;;;;;;2.70;1.60;;;;;;;;;;5113334;28;20140;-58
2021/01/09 12:04:08;;;;;;;2.90;1.80;;;;;;;;;;5113331;28;20034;-58
2021/01/09 12:06:35;;;;;;;3.63;1.50;;;;;;;;;;5113274;28;20166;-58
2021/01/09 12:09:02;;;;;;;2.63;1.60;;;;;;;;;;5113123;28;20031;-58
2021/01/09 12:11:28;;;;;;;3.13;2.00;;;;;;;;;;5113771;27;20363;-58
2021/01/09 12:13:55;;;;;;;2.73;1.73;;;;;;;;;;5113299;28;20259;-58
2021/01/09 12:16:32;;;;;;;6.63;2.90;;;;;;;;;;5113258;28;20020;-58
2021/01/09 12:18:58;;;;;;;4.23;2.23;;;;;;;;;;5113039;28;20024;-58
2021/01/09 12:21:28;;;;;;;5.10;2.97;;;;;;;;;;5113201;28;20255;-58
2021/01/09 12:23:57;;;;;;;15.03;7.20;;;;;;;;;;5113106;28;20251;-58
2021/01/09 12:26:24;;;;;;;18.37;9.47;;;;;;;;;;5113079;28;20244;-58
2021/01/09 12:28:51;;;;;;;14.10;9.30;;;;;;;;;;5113068;28;20301;-58
2021/01/09 12:31:18;;;;;;;9.43;5.80;;;;;;;;;;5112934;28;20474;-58
2021/01/09 12:33:45;;;;;;;11.40;4.30;;;;;;;;;;5113059;28;20381;-58
2021/01/09 12:36:18;;;;;;;6.67;3.70;;;;;;;;;;5113019;28;20272;-58
2021/01/09 12:38:45;;;;;;;5.20;3.80;;;;;;;;;;5112952;28;20039;-58
2021/01/09 12:41:11;;;;;;;6.73;3.47;;;;;;;;;;5112888;28;20284;-58
2021/01/09 12:43:39;;;;;;;6.17;3.30;;;;;;;;;;5113019;28;20026;-58
2021/01/09 12:46:06;;;;;;;6.07;3.40;;;;;;;;;;5112997;28;20263;-58
2021/01/09 12:48:33;;;;;;;4.47;3.03;;;;;;;;;;5112889;28;20030;-58
2021/01/09 12:51:00;;;;;;;6.60;3.00;;;;;;;;;;5112870;28;20284;-58
2021/01/09 12:53:28;;;;;;;4.40;2.67;;;;;;;;;;5113294;28;20252;-58
2021/01/09 12:56:01;;;;;;;5.47;2.80;;;;;;;;;;5112921;28;20236;-58
2021/01/09 12:58:28;;;;;;;4.33;2.80;;;;;;;;;;5112821;28;20252;-58
2021/01/09 13:00:55;;;;;;;4.37;2.67;;;;;;;;;;5112649;28;20370;-58
2021/01/09 13:03:22;;;;;;;4.63;2.53;;;;;;;;;;5112784;28;20248;-58
2021/01/09 13:05:48;;;;;;;6.57;2.50;;;;;;;;;;5112668;28;20248;-58
2021/01/09 13:08:15;;;;;;;4.73;3.00;;;;;;;;;;5115642;28;20816;-58
2021/01/09 13:10:42;;;;;;;4.33;2.60;;;;;;;;;;5116232;28;20252;-58
2021/01/09 13:13:09;;;;;;;7.27;2.63;;;;;;;;;;5116948;27;20280;-58
2021/01/09 13:15:37;;;;;;;4.60;2.03;;;;;;;;;;5116311;28;20275;-58
2021/01/09 13:18:04;;;;;;;6.07;2.20;;;;;;;;;;5116361;28;20020;-58
2021/01/09 13:20:30;;;;;;;4.07;2.00;;;;;;;;;;5116172;28;20288;-58
2021/01/09 13:22:57;;;;;;;4.47;2.00;;;;;;;;;;5116181;28;20665;-58
2021/01/09 13:25:24;;;;;;;5.27;1.77;;;;;;;;;;5116202;28;20020;-58
2021/01/09 13:27:51;;;;;;;3.97;1.70;;;;;;;;;;5116075;28;20309;-58
2021/01/09 13:30:19;;;;;;;4.27;1.90;;;;;;;;;;5116021;28;20252;-58
2021/01/09 13:32:46;;;;;;;3.30;1.83;;;;;;;;;;5116064;28;20603;-58
2021/01/09 13:35:13;;;;;;;4.87;1.90;;;;;;;;;;5115921;28;20308;-58
2021/01/09 13:37:40;;;;;;;3.33;1.80;;;;;;;;;;5115956;28;20755;-58
2021/01/09 13:40:07;;;;;;;4.10;1.60;;;;;;;;;;5115655;28;20695;-58
2021/01/09 13:42:34;;;;;;;5.43;1.90;;;;;;;;;;5115683;28;20592;-58
2021/01/09 13:45:01;;;;;;;3.87;2.10;;;;;;;;;;5115671;28;20256;-58
2021/01/09 13:47:31;;;;;;;3.70;1.70;;;;;;;;;;5115642;28;20327;-58
2021/01/09 13:49:58;;;;;;;3.30;1.70;;;;;;;;;;5115568;28;20252;-58
2021/01/09 13:52:25;;;;;;;5.73;2.23;;;;;;;;;;5115619;28;20267;-58
2021/01/09 13:54:52;;;;;;;3.23;1.90;;;;;;;;;;5115568;28;20059;-58
2021/01/09 13:57:18;;;;;;;4.63;2.23;;;;;;;;;;5115431;28;20810;-58
2021/01/09 13:59:45;;;;;;;2.73;1.87;;;;;;;;;;5115406;28;20272;-58
2021/01/09 14:02:12;;;;;;;3.83;2.10;;;;;;;;;;5115446;28;20031;-58
2021/01/09 14:04:39;;;;;;;3.70;2.00;;;;;;;;;;5115348;28;20240;-58
2021/01/09 14:07:06;;;;;;;3.53;1.77;;;;;;;;;;5115636;28;20271;-58
2021/01/09 14:09:33;;;;;;;3.60;2.07;;;;;;;;;;5115285;28;20240;-59
2021/01/09 14:12:00;;;;;;;2.53;1.60;;;;;;;;;;5115600;27;20272;-58
2021/01/09 14:14:27;;;;;;;3.53;1.70;;;;;;;;;;5115160;28;20256;-59
2021/01/09 14:16:55;;;;;;;3.40;1.67;;;;;;;;;;5115124;28;20054;-58
2021/01/09 14:19:22;;;;;;;5.77;2.93;;;;;;;;;;5114924;28;20111;-58
2021/01/09 14:21:49;;;;;;;3.73;2.23;;;;;;;;;;5115029;28;20020;-58
2021/01/09 14:24:15;;;;;;;8.67;3.20;;;;;;;;;;5115027;28;20035;-58
2021/01/09 14:26:42;;;;;;;11.27;4.43;;;;;;;;;;5114843;28;20020;-58
2021/01/09 14:29:09;;;;;;;10.87;4.70;;;;;;;;;;5114838;28;20019;-58
2021/01/09 14:31:36;;;;;;;16.20;4.80;;;;;;;;;;5114789;28;20063;-58
2021/01/09 14:34:03;;;;;;;6.30;3.60;;;;;;;;;;5114793;28;20236;-58
2021/01/09 14:36:30;;;;;;;6.60;3.07;;;;;;;;;;5114664;28;20019;-58
2021/01/09 14:38:57;;;;;;;6.33;3.57;;;;;;;;;;5114561;28;20734;-58
2021/01/09 14:41:24;;;;;;;4.67;2.53;;;;;;;;;;5114710;28;20028;-58
2021/01/09 14:43:53;;;;;;;4.80;2.53;;;;;;;;;;5114497;28;20252;-58
2021/01/09 14:46:20;;;;;;;3.43;2.03;;;;;;;;;;5114481;28;20343;-58
2021/01/09 14:48:48;;;;;;;3.57;2.20;;;;;;;;;;5114467;28;20501;-58
2021/01/09 14:51:20;;;;;;;4.63;2.03;;;;;;;;;;5114466;28;20260;-58
2021/01/09 14:53:47;;;;;;;3.37;1.70;;;;;;;;;;5114339;28;20473;-58
2021/01/09 14:56:14;;;;;;;3.30;1.90;;;;;;;;;;5114403;28;20266;-59
2021/01/09 14:58:40;;;;;;;4.73;1.80;;;;;;;;;;5114287;28;20016;-57
2021/01/09 15:01:07;;;;;;;4.67;1.97;;;;;;;;;;5114136;28;20038;-58